Tropical Cyclones
[Index]
Main Index Home Page Stock Weather Photos Extreme Storms Discussion Storm News and Storm Chasing Reports Tropical Cyclones / Hurricanes / Typhoons Weather Data and Links Wild Fires / Bushfires Weather Observation Techniques Weather Picture Catalogue Tornado Pictures and Reports Stock Video Footage and DVDs for sale
Season 2014-2015 Tropical Cyclone SOLO Track Map
Season 2014-2015 Summaries (Operational Data): [AU] [SIO] [SPAC] [SH]
<<- Previous TC | 2014-2015 Season | Next TC ->>

click for intensity scale information  Lat/long Grid: Show Hide

 Date Labels: Show Hide

Operational Tropical Cyclone Data : JTWC Advisories

Name: SOLO
Number: 1523

08 Apr 2015 00:00 UTC to 13 Apr 2015 00:00 UTC

    date/time    lat    long     hPa   cat  kts
2015-04-08 00    7.9   165.5    1010         15          
2015-04-08 06    9.8   163.8    1010         15          
2015-04-08 12   10.4   163.4    1010         15          
2015-04-08 18   10.8   163.1    1010         15          
2015-04-09 00   11.4   162.8    1010         15          
2015-04-09 06   12.0   162.5    1010         15          
2015-04-09 12   12.8   161.8    1004         25          
2015-04-09 18   13.6   161.2     996    1    35          
2015-04-10 00   13.9   160.6     989    1    45          
2015-04-10 06   14.7   160.4     989    1    45          
2015-04-10 12   16.0   160.5     989    1    45          
2015-04-10 18   16.8   161.0     985    2    50          
2015-04-11 00   17.6   161.5     982    2    55          
2015-04-11 06   18.3   161.9     982    2    55          
2015-04-11 12   18.7   162.8     985    2    50          
2015-04-11 18   19.3   164.0     989    1    45          
2015-04-12 00   20.2   165.7     996    1    35          
2015-04-12 06   21.4   168.1    1000         30          
2015-04-12 12   22.8   170.4    1000         30          
2015-04-12 18   24.0   172.6    1000         30          
2015-04-13 00   25.3   174.8    1002         25          
Winds are 10-min average.

Tropical cyclone tracks developed by Michael Bath using operational warnings and advisories and Google Maps.


[Australian Severe Weather index] [Copyright Notice] [Email Contacts] [Search This Site] [Privacy Policy]
Document: tropical_cyclone_solo.htm Updated: 2 May 2017